createdAt,value
2023-03-11T00:02:28.083Z,97.33
2023-03-11T00:04:56.251Z,98.52
2023-03-11T00:07:24.153Z,98.59
2023-03-11T00:09:54.671Z,98.76
2023-03-11T00:12:25.613Z,99.26
2023-03-11T00:14:53.814Z,100.00
2023-03-11T00:17:21.724Z,99.37
2023-03-11T00:19:52.683Z,99.88
2023-03-11T00:22:23.499Z,99.35
2023-03-11T00:24:54.451Z,98.74
2023-03-11T00:27:25.479Z,98.57
2023-03-11T00:29:53.242Z,99.93
2023-03-11T00:32:23.022Z,100.00
2023-03-11T00:34:53.223Z,99.99
2023-03-11T00:37:28.321Z,100.00
2023-03-11T00:40:14.493Z,100.00
2023-03-11T00:42:49.023Z,100.00
2023-03-11T00:45:44.879Z,100.00
2023-03-11T00:48:25.131Z,100.00
2023-03-11T00:51:00.054Z,100.00
2023-03-11T00:53:30.763Z,100.00
2023-03-11T00:56:13.778Z,100.00
2023-03-11T00:58:45.952Z,100.00
2023-03-11T01:01:31.018Z,100.00
2023-03-11T01:04:00.439Z,100.00
2023-03-11T01:06:43.186Z,100.00
2023-03-11T01:09:27.399Z,100.00
2023-03-11T01:12:04.902Z,100.00
2023-03-11T01:14:39.483Z,100.00
2023-03-11T01:17:07.600Z,100.00
2023-03-11T01:19:51.184Z,100.00
2023-03-11T03:57:42.637Z,100.00
2023-03-11T04:00:22.880Z,100.00
2023-03-11T04:03:16.956Z,100.00
2023-03-11T04:06:23.259Z,99.78
2023-03-11T04:08:56.598Z,100.00
2023-03-11T04:11:45.256Z,100.00
2023-03-11T04:14:15.455Z,100.00
2023-03-11T04:17:00.461Z,100.00
2023-03-11T04:19:35.676Z,99.62
2023-03-11T04:22:04.218Z,98.25
2023-03-11T04:24:40.062Z,98.77
2023-03-11T04:27:08.414Z,97.34
2023-03-11T04:29:42.980Z,96.75
2023-03-11T04:32:23.076Z,95.53
2023-03-11T04:35:04.449Z,96.51
2023-03-11T04:37:37.658Z,95.58
2023-03-11T04:40:22.706Z,96.06
2023-03-11T04:42:54.105Z,97.72
2023-03-11T04:45:23.165Z,98.16
2023-03-11T04:47:57.182Z,99.55
2023-03-11T04:50:43.030Z,99.13
2023-03-11T04:53:27.604Z,98.45
2023-03-11T04:56:08.812Z,96.22
2023-03-11T04:58:57.895Z,93.50
2023-03-11T05:01:29.586Z,93.68
2023-03-11T05:04:33.462Z,90.80
2023-03-11T05:07:07.954Z,89.78
2023-03-11T05:09:36.110Z,92.84
2023-03-11T05:12:04.620Z,95.24
2023-03-11T05:14:41.799Z,95.30
2023-03-11T05:17:18.318Z,93.00
2023-03-11T05:19:55.181Z,94.32
2023-03-11T05:22:38.922Z,94.33
2023-03-11T05:25:07.834Z,92.77
2023-03-11T05:27:37.883Z,90.11
2023-03-11T05:30:37.736Z,91.82
2023-03-11T05:33:15.567Z,90.11
2023-03-11T05:35:43.702Z,90.46
2023-03-11T05:38:15.417Z,91.14
2023-03-11T05:40:43.858Z,90.70
2023-03-11T05:43:25.233Z,90.63
2023-03-11T05:46:01.703Z,92.36
2023-03-11T05:48:32.564Z,91.85
2023-03-11T05:51:20.347Z,89.35
2023-03-11T05:53:49.458Z,90.23
2023-03-11T05:56:44.486Z,93.45
2023-03-11T05:59:16.472Z,93.09
2023-03-11T06:01:56.215Z,93.90
2023-03-11T06:04:34.022Z,91.94
2023-03-11T06:07:27.287Z,92.28
2023-03-11T06:10:43.395Z,90.25
2023-03-11T06:13:15.442Z,88.97
2023-03-11T06:15:52.355Z,87.50
2023-03-11T06:18:26.311Z,85.97
2023-03-11T06:20:59.178Z,85.96
2023-03-11T06:23:32.910Z,86.99
2023-03-11T06:26:07.980Z,85.67
2023-03-11T06:28:42.024Z,85.76
2023-03-11T06:31:26.167Z,85.46
2023-03-11T06:33:59.099Z,89.01
2023-03-11T06:36:27.997Z,88.41
2023-03-11T06:38:56.050Z,87.78
2023-03-11T06:41:28.245Z,89.28
2023-03-11T06:44:02.924Z,88.51
2023-03-11T06:46:31.180Z,89.20
2023-03-11T06:49:02.932Z,89.33
2023-03-11T06:51:36.273Z,90.63
2023-03-11T06:54:05.379Z,89.37
2023-03-11T06:56:34.180Z,90.04
2023-03-11T06:59:15.548Z,87.37
2023-03-11T07:01:44.264Z,83.67
2023-03-11T07:04:16.987Z,83.37
2023-03-11T07:06:45.960Z,82.32
2023-03-11T07:09:49.429Z,84.65
2023-03-11T07:12:19.239Z,82.01
2023-03-11T07:14:49.526Z,81.33
2023-03-11T07:17:45.495Z,81.35
2023-03-11T07:20:23.713Z,83.06
2023-03-11T07:22:58.054Z,82.60
2023-03-11T07:25:26.424Z,81.35
2023-03-11T07:28:02.262Z,81.84
2023-03-11T07:30:30.864Z,83.09
2023-03-11T07:33:01.884Z,84.11
2023-03-11T07:35:41.612Z,82.74
2023-03-11T07:38:19.644Z,82.55
2023-03-11T07:40:57.742Z,83.09
2023-03-11T07:43:26.788Z,82.96
2023-03-11T07:46:08.243Z,82.86
2023-03-11T07:48:47.407Z,81.23
2023-03-11T07:52:00.982Z,79.82
2023-03-11T07:54:45.438Z,80.00
2023-03-11T07:57:17.141Z,82.33
2023-03-11T07:59:45.246Z,80.63
2023-03-11T08:02:15.786Z,81.26
2023-03-11T08:04:46.741Z,82.01
2023-03-11T08:07:14.943Z,80.43
2023-03-11T08:09:46.605Z,78.38
2023-03-11T08:12:20.219Z,79.16
2023-03-11T08:14:56.310Z,79.64
2023-03-11T08:17:27.428Z,80.22
2023-03-11T08:20:01.614Z,78.31
2023-03-11T08:22:35.196Z,79.18
2023-03-11T08:25:03.402Z,79.51
2023-03-11T08:27:31.532Z,78.08
2023-03-11T08:30:30.183Z,78.72
2023-03-11T08:33:03.097Z,80.12
2023-03-11T08:35:34.199Z,79.49
2023-03-11T08:38:02.440Z,80.62
2023-03-11T08:40:31.561Z,80.70
2023-03-11T08:42:59.729Z,84.54
2023-03-11T08:45:29.844Z,82.48
2023-03-11T08:48:04.290Z,81.30
2023-03-11T08:50:54.276Z,80.82
2023-03-11T08:54:24.290Z,80.56
2023-03-11T08:57:57.134Z,83.15
2023-03-11T09:00:25.435Z,83.73
2023-03-11T09:02:53.847Z,80.94
2023-03-11T09:05:22.144Z,77.45
2023-03-11T09:07:52.188Z,78.49
2023-03-11T09:10:37.857Z,76.84
2023-03-11T09:13:22.842Z,77.86
2023-03-11T09:15:54.167Z,77.31
2023-03-11T09:18:22.638Z,77.82
2023-03-11T09:20:58.347Z,76.90
2023-03-11T09:23:26.899Z,76.16
2023-03-11T09:25:54.877Z,76.48
2023-03-11T09:28:35.120Z,73.06
2023-03-11T09:31:03.190Z,75.45
2023-03-11T09:33:41.262Z,73.73
2023-03-11T09:36:14.822Z,76.87
2023-03-11T09:38:44.577Z,79.53
2023-03-11T09:41:23.997Z,77.18
2023-03-11T09:44:22.919Z,78.58
2023-03-11T09:47:05.095Z,76.38
2023-03-11T09:50:01.524Z,77.65
2023-03-11T09:53:21.203Z,77.61
2023-03-11T09:56:19.153Z,78.46
2023-03-11T09:58:54.214Z,75.80
2023-03-11T10:01:49.872Z,76.76
2023-03-11T10:04:51.078Z,75.79
2023-03-11T10:08:33.803Z,73.91
2023-03-11T10:19:23.184Z,76.86
2023-03-11T10:22:35.072Z,75.41
2023-03-11T10:25:05.979Z,75.21
2023-03-11T10:27:49.807Z,74.41
2023-03-11T10:30:42.754Z,72.68
2023-03-11T10:33:31.936Z,74.69
2023-03-11T10:36:07.271Z,76.30
2023-03-11T10:38:42.532Z,74.88
2023-03-11T10:41:36.685Z,72.62
2023-03-11T10:44:15.391Z,74.04
2023-03-11T10:46:47.944Z,72.73
2023-03-11T10:49:18.376Z,70.83
2023-03-11T10:51:49.931Z,71.90
2023-03-11T10:54:23.164Z,71.77
2023-03-11T10:57:19.114Z,71.70
2023-03-11T10:59:58.561Z,73.51
2023-03-11T11:02:39.253Z,71.79
2023-03-11T11:05:21.568Z,71.63
2023-03-11T11:08:04.144Z,69.46
2023-03-11T11:10:36.190Z,70.70
2023-03-11T11:13:13.504Z,67.58
2023-03-11T11:16:03.440Z,69.28
2023-03-11T11:18:51.567Z,66.95
2023-03-11T11:21:43.667Z,66.84
2023-03-11T11:24:28.766Z,67.63
2023-03-11T11:27:18.976Z,68.49
2023-03-11T11:30:02.256Z,65.95
2023-03-11T11:32:30.482Z,66.94
2023-03-11T11:35:14.523Z,68.32
2023-03-11T11:37:52.325Z,67.26
2023-03-11T11:40:41.897Z,66.67
2023-03-11T11:43:19.774Z,65.54
2023-03-11T11:46:20.581Z,66.23
2023-03-11T11:49:22.690Z,65.93
2023-03-11T11:52:12.498Z,65.05
2023-03-11T11:54:48.934Z,65.64
2023-03-11T11:57:21.466Z,66.92
2023-03-11T11:59:49.576Z,66.98
2023-03-11T12:02:50.951Z,68.64
2023-03-11T12:06:02.721Z,64.88
2023-03-11T12:08:46.065Z,62.10
2023-03-11T12:11:37.748Z,64.91
2023-03-11T12:14:25.344Z,64.97
2023-03-11T12:17:03.872Z,65.46
2023-03-11T12:19:49.516Z,61.93
2023-03-11T12:22:49.386Z,64.59
2023-03-11T12:25:26.255Z,66.45
2023-03-11T12:28:30.037Z,65.66
2023-03-11T12:31:02.976Z,68.54
2023-03-11T12:33:37.314Z,65.29
2023-03-11T12:36:07.240Z,63.16
2023-03-11T12:38:48.154Z,65.06
2023-03-11T12:41:43.017Z,65.07
2023-03-11T12:44:29.737Z,61.10
2023-03-11T12:47:23.703Z,64.18
2023-03-11T12:50:18.417Z,64.37
2023-03-11T12:52:54.960Z,63.60
2023-03-11T12:55:36.653Z,63.33
2023-03-11T12:58:34.375Z,64.95
2023-03-11T13:02:02.040Z,62.76
2023-03-11T13:05:01.199Z,63.27
2023-03-11T13:07:47.994Z,62.20
2023-03-11T13:10:37.084Z,62.00
2023-03-11T13:13:35.403Z,61.34
2023-03-11T13:16:14.853Z,61.06
2023-03-11T13:18:54.903Z,55.34
2023-03-11T13:21:37.619Z,57.89
2023-03-11T13:24:34.598Z,58.43
2023-03-11T13:27:27.683Z,58.63
2023-03-11T13:30:24.593Z,56.55
2023-03-11T13:33:07.431Z,56.76
2023-03-11T13:36:10.148Z,59.49
2023-03-11T13:39:12.637Z,57.46
2023-03-11T13:41:45.240Z,56.65
2023-03-11T13:44:19.327Z,56.84
2023-03-11T13:46:58.484Z,54.01
2023-03-11T13:49:41.706Z,57.40
2023-03-11T13:52:26.456Z,55.32
2023-03-11T13:55:06.952Z,53.53
2023-03-11T13:57:37.658Z,54.03
2023-03-11T14:00:18.253Z,57.15
2023-03-11T14:02:58.128Z,54.21
2023-03-11T14:05:35.225Z,52.79
2023-03-11T14:08:13.386Z,53.92
2023-03-11T14:10:51.245Z,54.05
2023-03-11T14:13:19.934Z,53.12
2023-03-11T14:16:10.062Z,55.61
2023-03-11T14:18:40.374Z,53.52
2023-03-11T14:21:28.469Z,52.64
2023-03-11T14:23:56.606Z,51.94
2023-03-11T14:26:35.013Z,54.48
2023-03-11T14:29:15.629Z,54.54
2023-03-11T14:31:44.273Z,52.10
2023-03-11T14:34:16.847Z,50.20
2023-03-11T14:36:58.900Z,52.54
2023-03-11T14:39:35.644Z,50.87
2023-03-11T14:42:24.087Z,52.43
2023-03-11T14:45:17.300Z,50.99
2023-03-11T14:48:15.232Z,50.59
2023-03-11T14:50:49.462Z,49.84
2023-03-11T14:53:56.287Z,51.71
2023-03-11T14:56:26.624Z,52.72
2023-03-11T14:59:08.403Z,50.41
2023-03-11T15:01:44.910Z,50.43
2023-03-11T15:04:35.236Z,51.77
2023-03-11T15:07:07.627Z,51.07
2023-03-11T15:09:41.975Z,50.52
2023-03-11T15:12:36.192Z,49.07
2023-03-11T15:15:21.378Z,50.99
2023-03-11T15:17:57.391Z,49.88
2023-03-11T15:20:37.694Z,49.50
2023-03-11T15:23:10.605Z,49.89
2023-03-11T15:25:39.248Z,48.91
2023-03-11T15:28:33.997Z,49.41
2023-03-11T15:31:20.627Z,48.57
2023-03-11T15:33:51.573Z,47.62
2023-03-11T15:36:43.982Z,48.74
2023-03-11T15:39:29.252Z,47.31
2023-03-11T15:42:32.626Z,46.44
2023-03-11T15:45:21.277Z,47.33
2023-03-11T15:47:50.741Z,47.61
2023-03-11T15:50:59.437Z,49.28
2023-03-11T15:53:35.523Z,49.72
2023-03-11T15:56:19.854Z,52.36
2023-03-11T15:58:47.713Z,52.41
2023-03-11T16:01:30.094Z,52.57
2023-03-11T16:04:16.595Z,50.94
2023-03-11T16:06:59.504Z,52.22
2023-03-11T16:09:45.655Z,51.99
2023-03-11T16:12:23.041Z,50.39
2023-03-11T16:14:53.393Z,49.58
2023-03-11T16:17:49.318Z,50.36
2023-03-11T16:20:25.340Z,51.10
2023-03-11T16:22:56.387Z,49.84
2023-03-11T16:25:40.301Z,49.77
2023-03-11T16:28:18.169Z,48.81
2023-03-11T16:30:53.966Z,48.83
2023-03-11T16:33:30.500Z,49.09
2023-03-11T16:35:58.740Z,50.19
2023-03-11T16:38:31.627Z,51.26
2023-03-11T16:41:04.025Z,50.77
2023-03-11T16:43:32.021Z,48.85
2023-03-11T16:46:02.335Z,50.52
2023-03-11T16:48:41.985Z,51.21
2023-03-11T16:51:10.355Z,50.35
2023-03-11T16:53:38.340Z,51.16
2023-03-11T16:56:06.822Z,51.78
2023-03-11T16:58:37.220Z,52.82
2023-03-11T17:01:06.398Z,53.29
2023-03-11T17:03:42.098Z,55.58
2023-03-11T17:06:13.664Z,54.38
2023-03-11T17:08:41.580Z,55.32
2023-03-11T17:11:22.769Z,55.23
2023-03-11T17:13:52.724Z,56.53
2023-03-11T17:16:23.587Z,56.48
2023-03-11T17:18:51.578Z,55.14
2023-03-11T17:21:19.502Z,55.90
2023-03-11T17:23:47.308Z,56.10
2023-03-11T17:26:17.458Z,55.36
2023-03-11T17:28:48.037Z,56.04
2023-03-11T17:31:16.933Z,57.17
2023-03-11T17:33:50.740Z,56.85
2023-03-11T17:36:19.276Z,58.42
2023-03-11T17:38:50.919Z,57.07
2023-03-11T17:41:19.200Z,58.05
2023-03-11T17:43:50.271Z,56.61
2023-03-11T17:46:23.194Z,58.12
2023-03-11T17:48:53.580Z,58.87
2023-03-11T17:51:25.872Z,58.87
2023-03-11T17:53:55.741Z,58.46
2023-03-11T17:56:23.703Z,58.41
2023-03-11T17:58:51.927Z,58.85
2023-03-11T18:01:23.484Z,59.15
2023-03-11T18:03:52.311Z,59.01
2023-03-11T18:06:21.883Z,59.34
2023-03-11T18:08:52.829Z,59.12
2023-03-11T18:11:25.263Z,59.29
2023-03-11T18:13:54.291Z,59.15
2023-03-11T18:16:30.254Z,59.85
2023-03-11T18:18:58.140Z,60.15
2023-03-11T18:21:29.330Z,60.07
2023-03-11T18:24:00.429Z,60.89
2023-03-11T18:26:29.988Z,61.32
2023-03-11T18:28:59.711Z,60.30
2023-03-11T18:31:36.040Z,58.09
2023-03-11T18:34:13.395Z,59.65
2023-03-11T18:36:42.669Z,60.55
2023-03-11T18:39:17.843Z,62.03
2023-03-11T18:41:48.357Z,62.78
2023-03-11T18:45:12.254Z,61.97
2023-03-11T18:50:56.108Z,61.71
2023-03-11T18:56:21.956Z,62.91
2023-03-11T18:58:49.710Z,62.85
2023-03-11T19:01:34.774Z,63.60
2023-03-11T19:07:14.132Z,63.90
2023-03-11T19:15:07.258Z,63.80
2023-03-11T19:18:06.530Z,63.12
2023-03-11T19:20:44.562Z,63.55
2023-03-11T19:23:24.517Z,62.99
2023-03-11T19:26:03.764Z,63.48
2023-03-11T19:28:42.904Z,62.12
2023-03-11T19:32:07.110Z,63.02
2023-03-11T19:34:39.308Z,64.21
2023-03-11T19:37:15.843Z,63.59
2023-03-11T19:40:47.561Z,63.16
2023-03-11T19:44:07.199Z,62.88
2023-03-11T19:47:46.493Z,61.64
2023-03-11T19:54:58.403Z,62.82
2023-03-11T19:57:41.524Z,62.26
2023-03-11T20:00:41.071Z,63.02
2023-03-11T20:03:41.030Z,62.73
2023-03-11T20:06:45.072Z,62.78
2023-03-11T20:09:27.029Z,62.86
2023-03-11T20:13:01.747Z,61.91
2023-03-11T20:19:34.537Z,63.00
2023-03-11T20:22:25.091Z,62.29
2023-03-11T20:25:09.312Z,62.95
2023-03-11T20:28:04.576Z,64.08
2023-03-11T20:31:03.573Z,62.91
2023-03-11T20:34:10.204Z,62.92
2023-03-11T20:45:40.401Z,62.34
2023-03-11T20:48:10.825Z,62.47
2023-03-11T20:51:06.815Z,62.57
2023-03-11T20:59:25.402Z,64.09
2023-03-11T21:05:34.049Z,64.02
2023-03-11T21:08:15.440Z,62.90
2023-03-11T21:10:46.011Z,62.48
2023-03-11T21:13:25.297Z,63.37
2023-03-11T21:15:56.980Z,63.27
2023-03-11T21:18:35.600Z,63.26
2023-03-11T21:21:13.076Z,63.37
2023-03-11T21:23:53.833Z,63.45
2023-03-11T21:26:21.986Z,64.54
2023-03-11T21:29:02.781Z,64.70
2023-03-11T21:31:34.451Z,62.82
2023-03-11T21:34:09.532Z,62.41
2023-03-11T21:36:41.947Z,64.56
2023-03-11T21:39:10.366Z,63.69
2023-03-11T21:41:40.094Z,63.80
2023-03-11T21:44:15.792Z,63.01
2023-03-11T21:46:49.173Z,63.24
2023-03-11T21:49:26.873Z,63.67
2023-03-11T21:51:55.329Z,64.16
2023-03-11T21:54:23.497Z,64.71
2023-03-11T21:56:57.812Z,63.62
2023-03-11T21:59:30.839Z,63.69
2023-03-11T22:02:40.810Z,64.72
2023-03-11T22:05:12.393Z,64.23
2023-03-11T22:07:44.732Z,64.57
2023-03-11T22:10:14.211Z,64.34
2023-03-11T22:12:46.591Z,64.95
2023-03-11T22:15:22.186Z,63.94
2023-03-11T22:17:52.921Z,64.26
2023-03-11T22:20:45.397Z,63.11
2023-03-11T22:23:30.297Z,63.89
2023-03-11T22:26:10.584Z,62.79
2023-03-11T22:28:38.912Z,63.45
2023-03-11T22:31:13.940Z,63.85
2023-03-11T22:33:41.970Z,64.89
2023-03-11T22:36:12.666Z,65.25
2023-03-11T22:38:49.867Z,64.24
2023-03-11T22:41:20.783Z,65.25
2023-03-11T22:43:48.509Z,63.64
2023-03-11T22:46:20.295Z,63.89
2023-03-11T22:48:49.512Z,64.23
2023-03-11T22:51:17.240Z,64.03
2023-03-11T22:53:45.339Z,63.88
2023-03-11T22:56:18.884Z,64.19
2023-03-11T22:58:46.996Z,63.79
2023-03-11T23:01:17.543Z,63.64
2023-03-11T23:03:48.000Z,63.21
2023-03-11T23:06:18.928Z,62.47
2023-03-11T23:08:47.440Z,62.56
2023-03-11T23:11:23.397Z,62.58
2023-03-11T23:14:02.262Z,63.10
2023-03-11T23:16:31.294Z,62.54
2023-03-11T23:19:02.001Z,63.12
2023-03-11T23:21:36.391Z,61.88
2023-03-11T23:24:06.486Z,62.52
2023-03-11T23:26:35.442Z,61.71
2023-03-11T23:29:04.881Z,62.18
2023-03-11T23:31:32.944Z,61.20
2023-03-11T23:34:00.765Z,61.87
2023-03-11T23:36:30.801Z,62.45
2023-03-11T23:38:58.797Z,60.66
2023-03-11T23:41:26.551Z,62.28
2023-03-11T23:43:54.294Z,60.61
2023-03-11T23:46:22.127Z,60.95
2023-03-11T23:48:50.466Z,61.56
2023-03-11T23:51:19.134Z,61.54
2023-03-11T23:53:46.955Z,63.15
2023-03-11T23:56:17.728Z,62.33
2023-03-11T23:58:47.955Z,62.99
